createdAt,value
2019-02-10T00:00:35.530Z,1.43
2019-02-10T00:03:02.137Z,1.70
2019-02-10T00:05:28.883Z,1.80
2019-02-10T00:07:55.724Z,2.17
2019-02-10T00:10:22.658Z,1.60
2019-02-10T00:12:49.524Z,2.73
2019-02-10T00:15:17.448Z,1.40
2019-02-10T00:17:44.056Z,1.37
2019-02-10T00:20:10.700Z,1.70
2019-02-10T00:22:37.372Z,1.77
2019-02-10T00:25:04.231Z,1.63
2019-02-10T00:27:31.044Z,1.40
2019-02-10T00:29:58.106Z,1.90
2019-02-10T00:32:24.936Z,1.73
2019-02-10T00:34:54.719Z,1.73
2019-02-10T00:37:21.464Z,1.83
2019-02-10T00:39:49.156Z,1.93
2019-02-10T00:42:15.751Z,1.50
2019-02-10T00:44:42.557Z,1.87
2019-02-10T00:47:09.271Z,1.90
2019-02-10T00:49:36.349Z,1.80
2019-02-10T00:52:02.950Z,1.83
2019-02-10T00:54:29.657Z,1.57
2019-02-10T00:56:56.336Z,1.20
2019-02-10T00:59:23.601Z,2.03
2019-02-10T01:01:51.394Z,1.90
2019-02-10T01:04:18.431Z,1.80
2019-02-10T01:06:45.167Z,1.40
2019-02-10T01:09:11.950Z,1.20
2019-02-10T01:11:39.843Z,1.83
2019-02-10T01:14:06.865Z,1.63
2019-02-10T01:16:33.517Z,1.77
2019-02-10T01:19:00.391Z,1.63
2019-02-10T01:21:27.092Z,1.33
2019-02-10T01:23:54.223Z,1.67
2019-02-10T01:26:21.037Z,1.67
2019-02-10T01:28:47.622Z,1.20
2019-02-10T01:31:14.511Z,1.47
2019-02-10T01:33:41.129Z,1.43
2019-02-10T01:36:07.766Z,1.70
2019-02-10T01:38:34.530Z,1.30
2019-02-10T01:43:40.478Z,1.43
2019-02-10T01:46:08.846Z,1.40
2019-02-10T01:48:35.505Z,1.53
2019-02-10T01:51:02.276Z,1.40
2019-02-10T01:53:29.006Z,1.60
2019-02-10T01:55:55.735Z,1.33
2019-02-10T01:58:23.128Z,1.60
2019-02-10T02:00:50.253Z,1.30
2019-02-10T02:03:17.115Z,1.40
2019-02-10T02:05:43.994Z,1.40
2019-02-10T02:08:10.908Z,1.10
2019-02-10T02:10:37.597Z,0.93
2019-02-10T02:13:04.176Z,0.90
2019-02-10T02:15:32.650Z,0.93
2019-02-10T02:17:59.281Z,1.50
2019-02-10T02:20:27.026Z,1.30
2019-02-10T02:22:53.662Z,1.47
2019-02-10T02:25:20.416Z,1.27
2019-02-10T02:27:47.149Z,1.10
2019-02-10T02:30:13.924Z,1.37
2019-02-10T02:32:40.571Z,1.40
2019-02-10T02:35:09.108Z,1.10
2019-02-10T02:37:35.739Z,1.27
2019-02-10T02:40:02.454Z,1.27
2019-02-10T02:42:29.388Z,1.27
2019-02-10T02:44:56.117Z,0.87
2019-02-10T02:47:23.157Z,1.30
2019-02-10T02:49:49.714Z,1.43
2019-02-10T02:52:16.491Z,1.20
2019-02-10T02:54:43.139Z,1.20
2019-02-10T02:57:10.765Z,1.03
2019-02-10T02:59:37.607Z,1.20
2019-02-10T03:02:04.413Z,1.20
2019-02-10T03:04:33.653Z,1.33
2019-02-10T03:07:02.346Z,0.80
2019-02-10T03:09:30.272Z,1.27
2019-02-10T03:11:57.243Z,1.03
2019-02-10T03:14:23.971Z,1.10
2019-02-10T03:16:50.699Z,1.10
2019-02-10T03:19:17.362Z,0.93
2019-02-10T03:21:44.202Z,0.83
2019-02-10T03:24:10.879Z,1.10
2019-02-10T03:26:37.651Z,1.30
2019-02-10T03:29:04.507Z,1.17
2019-02-10T03:31:31.570Z,1.87
2019-02-10T03:33:58.659Z,1.00
2019-02-10T03:36:25.421Z,1.13
2019-02-10T03:38:53.186Z,1.10
2019-02-10T03:41:19.975Z,1.40
2019-02-10T03:43:46.689Z,1.50
2019-02-10T03:46:13.328Z,1.00
2019-02-10T03:48:40.057Z,1.30
2019-02-10T03:51:06.785Z,1.67
2019-02-10T03:53:33.452Z,1.03
2019-02-10T03:56:00.025Z,1.40
2019-02-10T04:01:05.972Z,1.30
2019-02-10T04:03:32.556Z,1.30
2019-02-10T04:05:59.325Z,1.47
2019-02-10T04:08:26.012Z,1.27
2019-02-10T04:10:52.996Z,1.27
2019-02-10T04:13:19.869Z,1.10
2019-02-10T04:15:48.560Z,1.40
2019-02-10T04:18:15.428Z,1.17
2019-02-10T04:20:42.400Z,1.00
2019-02-10T04:23:10.129Z,1.00
2019-02-10T04:25:38.333Z,1.50
2019-02-10T04:28:05.036Z,1.23
2019-02-10T04:30:33.774Z,1.07
2019-02-10T04:33:02.148Z,1.20
2019-02-10T04:35:33.635Z,1.27
2019-02-10T04:38:00.646Z,1.30
2019-02-10T04:40:30.550Z,1.07
2019-02-10T04:42:57.258Z,1.20
2019-02-10T04:45:23.982Z,1.20
2019-02-10T04:47:51.048Z,0.97
2019-02-10T04:50:18.258Z,1.40
2019-02-10T04:52:48.663Z,1.10
2019-02-10T04:55:15.800Z,0.90
2019-02-10T04:57:44.383Z,1.20
2019-02-10T05:00:14.522Z,1.37
2019-02-10T05:02:41.457Z,0.90
2019-02-10T05:05:08.129Z,1.20
2019-02-10T05:07:34.937Z,1.03
2019-02-10T05:10:02.745Z,1.20
2019-02-10T05:12:29.858Z,1.20
2019-02-10T05:14:56.792Z,0.97
2019-02-10T05:17:23.483Z,1.17
2019-02-10T05:19:50.596Z,1.30
2019-02-10T05:22:17.409Z,1.13
2019-02-10T05:24:44.177Z,1.17
2019-02-10T05:27:10.730Z,0.97
2019-02-10T05:29:38.579Z,1.30
2019-02-10T05:32:05.259Z,1.23
2019-02-10T05:34:31.986Z,1.63
2019-02-10T05:37:00.495Z,1.27
2019-02-10T05:39:27.196Z,1.20
2019-02-10T05:41:53.865Z,1.43
2019-02-10T05:44:21.183Z,1.30
2019-02-10T05:46:48.278Z,1.17
2019-02-10T05:49:16.211Z,1.27
2019-02-10T05:51:44.117Z,1.30
2019-02-10T05:54:10.808Z,1.33
2019-02-10T05:56:37.811Z,1.20
2019-02-10T05:59:07.194Z,0.97
2019-02-10T06:01:33.839Z,1.17
2019-02-10T06:04:00.415Z,1.10
2019-02-10T06:06:27.087Z,1.20
2019-02-10T06:08:54.051Z,1.10
2019-02-10T06:11:20.877Z,1.10
2019-02-10T06:13:47.527Z,1.57
2019-02-10T06:16:14.248Z,1.53
2019-02-10T06:18:41.005Z,1.80
2019-02-10T06:21:07.659Z,1.10
2019-02-10T06:23:34.367Z,1.20
2019-02-10T06:26:01.111Z,1.03
2019-02-10T06:28:27.818Z,1.20
2019-02-10T06:30:55.785Z,1.40
2019-02-10T06:33:23.681Z,1.27
2019-02-10T06:35:50.467Z,1.70
2019-02-10T06:38:22.543Z,1.23
2019-02-10T06:40:50.342Z,1.50
2019-02-10T06:43:17.354Z,1.20
2019-02-10T06:45:44.130Z,1.20
2019-02-10T06:48:10.814Z,1.50
2019-02-10T06:50:37.974Z,1.10
2019-02-10T06:53:07.554Z,1.30
2019-02-10T06:55:40.945Z,1.00
2019-02-10T06:58:09.084Z,1.30
2019-02-10T07:00:42.538Z,0.87
2019-02-10T07:03:14.328Z,1.03
2019-02-10T07:05:41.348Z,1.30
2019-02-10T07:08:10.114Z,1.00
2019-02-10T07:10:37.235Z,1.13
2019-02-10T07:13:03.994Z,1.23
2019-02-10T07:15:31.107Z,1.10
2019-02-10T07:17:57.946Z,1.10
2019-02-10T07:20:24.857Z,1.23
2019-02-10T07:22:51.686Z,1.13
2019-02-10T07:25:19.453Z,1.27
2019-02-10T07:27:48.058Z,0.80
2019-02-10T07:30:14.790Z,1.20
2019-02-10T07:32:44.242Z,1.10
2019-02-10T07:35:10.961Z,1.10
2019-02-10T07:37:37.759Z,0.97
2019-02-10T07:40:04.610Z,0.90
2019-02-10T07:42:31.376Z,1.03
2019-02-10T07:44:58.031Z,0.60
2019-02-10T07:47:26.121Z,1.00
2019-02-10T07:49:54.054Z,0.90
2019-02-10T07:52:20.978Z,1.10
2019-02-10T07:54:47.737Z,1.10
2019-02-10T07:57:18.197Z,0.90
2019-02-10T07:59:45.120Z,0.83
2019-02-10T08:02:13.287Z,1.10
2019-02-10T08:04:40.349Z,1.10
2019-02-10T08:07:07.195Z,1.27
2019-02-10T08:09:33.920Z,1.10
2019-02-10T08:12:01.675Z,0.90
2019-02-10T08:14:28.430Z,0.90
2019-02-10T08:16:55.093Z,1.20
2019-02-10T08:19:21.914Z,0.93
2019-02-10T08:21:48.677Z,0.97
2019-02-10T08:24:17.503Z,1.10
2019-02-10T08:26:48.055Z,1.10
2019-02-10T08:29:15.131Z,1.47
2019-02-10T08:31:41.874Z,1.10
2019-02-10T08:34:10.421Z,1.50
2019-02-10T08:36:37.429Z,1.30
2019-02-10T08:39:04.913Z,1.30
2019-02-10T08:41:31.802Z,1.37
2019-02-10T08:43:58.953Z,1.37
2019-02-10T08:46:25.787Z,1.30
2019-02-10T08:48:52.675Z,1.30
2019-02-10T08:51:21.211Z,1.40
2019-02-10T08:53:48.039Z,1.23
2019-02-10T08:56:14.799Z,1.30
2019-02-10T08:58:41.863Z,1.13
2019-02-10T09:01:08.641Z,1.40
2019-02-10T09:03:35.368Z,1.60
2019-02-10T09:06:02.186Z,1.30
2019-02-10T09:08:29.036Z,1.20
2019-02-10T09:10:55.775Z,1.47
2019-02-10T09:13:22.528Z,1.20
2019-02-10T09:15:49.365Z,1.50
2019-02-10T09:18:16.410Z,1.23
2019-02-10T09:20:44.902Z,1.60
2019-02-10T09:23:12.163Z,1.33
2019-02-10T09:25:40.754Z,1.60
2019-02-10T09:28:08.502Z,1.10
2019-02-10T09:30:35.258Z,1.30
2019-02-10T09:33:01.904Z,1.40
2019-02-10T09:35:29.724Z,1.60
2019-02-10T09:37:56.902Z,1.57
2019-02-10T09:40:23.637Z,1.30
2019-02-10T09:42:51.236Z,1.70
2019-02-10T09:45:19.029Z,1.77
2019-02-10T09:47:46.960Z,1.40
2019-02-10T09:50:13.628Z,1.40
2019-02-10T09:52:40.479Z,1.70
2019-02-10T09:55:07.485Z,2.00
2019-02-10T09:57:36.086Z,1.90
2019-02-10T10:00:02.993Z,2.50
2019-02-10T10:02:31.541Z,2.23
2019-02-10T10:04:58.340Z,2.77
2019-02-10T10:07:25.284Z,2.50
2019-02-10T10:09:52.430Z,2.67
2019-02-10T10:12:20.206Z,3.00
2019-02-10T10:14:48.501Z,2.90
2019-02-10T10:17:15.443Z,2.23
2019-02-10T10:19:42.459Z,2.80
2019-02-10T10:22:09.407Z,2.70
2019-02-10T10:24:37.569Z,2.77
2019-02-10T10:27:04.237Z,2.60
2019-02-10T10:29:32.867Z,2.40
2019-02-10T10:32:01.187Z,2.47
2019-02-10T10:34:27.962Z,2.37
2019-02-10T10:36:55.774Z,2.80
2019-02-10T10:39:27.430Z,2.03
2019-02-10T10:41:51.325Z,2.30
2019-02-10T10:44:18.103Z,2.47
2019-02-10T10:46:45.560Z,2.20
2019-02-10T10:49:14.230Z,2.27
2019-02-10T10:51:42.278Z,2.10
2019-02-10T10:54:09.146Z,2.10
2019-02-10T10:56:35.856Z,1.77
2019-02-10T10:59:02.822Z,1.80
2019-02-10T11:01:29.764Z,2.07
2019-02-10T11:03:56.521Z,2.10
2019-02-10T11:06:23.345Z,2.30
2019-02-10T11:08:50.061Z,2.20
2019-02-10T11:11:16.947Z,1.97
2019-02-10T11:13:43.787Z,1.83
2019-02-10T11:16:10.781Z,1.83
2019-02-10T11:18:37.571Z,1.97
2019-02-10T11:21:04.928Z,2.03
2019-02-10T11:23:31.606Z,2.10
2019-02-10T11:25:58.575Z,1.70
2019-02-10T11:28:25.444Z,2.20
2019-02-10T11:30:52.374Z,2.20
2019-02-10T11:33:19.022Z,2.30
2019-02-10T11:35:46.254Z,1.93
2019-02-10T11:38:12.890Z,1.83
2019-02-10T11:40:39.638Z,1.90
2019-02-10T11:43:06.521Z,2.10
2019-02-10T11:45:33.245Z,2.10
2019-02-10T11:48:02.774Z,1.90
2019-02-10T11:50:29.438Z,2.17
2019-02-10T11:52:56.336Z,1.70
2019-02-10T11:55:22.995Z,2.03
2019-02-10T11:57:51.502Z,1.90
2019-02-10T12:00:19.402Z,1.63
2019-02-10T12:02:46.132Z,1.73
2019-02-10T12:05:12.949Z,1.67
2019-02-10T12:07:40.120Z,1.50
2019-02-10T12:10:28.101Z,1.40
2019-02-10T12:12:54.695Z,1.47
2019-02-10T12:15:21.451Z,1.50
2019-02-10T12:17:48.308Z,1.60
2019-02-10T12:20:16.942Z,1.50
2019-02-10T12:22:49.849Z,1.53
2019-02-10T12:25:12.674Z,1.43
2019-02-10T12:27:39.510Z,1.70
2019-02-10T12:30:06.344Z,1.73
2019-02-10T12:32:34.430Z,1.30
2019-02-10T12:35:01.074Z,1.47
2019-02-10T12:37:32.421Z,1.40
2019-02-10T12:39:59.784Z,1.30
2019-02-10T12:42:24.995Z,1.33
2019-02-10T12:44:53.283Z,1.23
2019-02-10T12:47:20.329Z,1.27
2019-02-10T12:49:46.987Z,1.27
2019-02-10T12:52:14.087Z,1.17
2019-02-10T12:54:40.831Z,1.20
2019-02-10T12:57:07.641Z,0.97
2019-02-10T12:59:34.395Z,1.10
2019-02-10T13:02:01.090Z,0.90
2019-02-10T13:04:27.695Z,1.17
2019-02-10T13:06:54.833Z,1.10
2019-02-10T13:09:21.595Z,1.43
2019-02-10T13:11:58.047Z,1.17
2019-02-10T13:14:17.105Z,1.37
2019-02-10T13:16:43.744Z,1.13
2019-02-10T13:19:10.920Z,1.00
2019-02-10T13:21:37.890Z,0.90
2019-02-10T13:24:05.183Z,1.07
2019-02-10T13:26:31.931Z,1.20
2019-02-10T13:28:58.677Z,1.03
2019-02-10T13:31:25.541Z,1.40
2019-02-10T13:33:53.833Z,0.90
2019-02-10T13:36:20.675Z,0.90
2019-02-10T13:38:47.623Z,0.97
2019-02-10T13:41:14.449Z,1.27
2019-02-10T13:43:41.196Z,1.00
2019-02-10T13:46:08.845Z,0.93
2019-02-10T13:48:35.655Z,1.10
2019-02-10T13:51:02.501Z,0.90
2019-02-10T13:53:29.800Z,1.03
2019-02-10T13:55:58.298Z,0.90
2019-02-10T13:58:26.238Z,1.40
2019-02-10T14:00:54.781Z,1.00
2019-02-10T14:03:21.498Z,0.90
2019-02-10T14:05:48.157Z,1.00
2019-02-10T14:08:16.514Z,1.00
2019-02-10T14:10:43.644Z,1.10
2019-02-10T14:13:10.372Z,1.00
2019-02-10T14:15:37.231Z,0.87
2019-02-10T14:18:03.752Z,1.00
2019-02-10T14:20:30.384Z,1.00
2019-02-10T14:22:57.468Z,0.93
2019-02-10T14:25:24.238Z,1.13
2019-02-10T14:27:51.116Z,1.10
2019-02-10T14:30:17.798Z,1.00
2019-02-10T14:32:49.196Z,1.20
2019-02-10T14:35:16.123Z,1.07
2019-02-10T14:37:43.062Z,1.20
2019-02-10T14:40:09.857Z,0.97
2019-02-10T14:42:36.632Z,0.90
2019-02-10T14:45:04.626Z,0.90
2019-02-10T14:47:32.453Z,1.27
2019-02-10T14:49:59.252Z,0.87
2019-02-10T14:52:26.155Z,1.00
2019-02-10T14:57:33.177Z,0.80
2019-02-10T14:59:59.915Z,1.20
2019-02-10T15:02:26.617Z,0.70
2019-02-10T15:04:54.131Z,0.90
2019-02-10T15:07:25.118Z,0.90
2019-02-10T15:09:51.313Z,0.73
2019-02-10T15:12:18.102Z,1.13
2019-02-10T15:14:44.761Z,1.10
2019-02-10T15:17:11.488Z,0.80
2019-02-10T15:19:38.367Z,0.90
2019-02-10T15:22:05.263Z,0.83
2019-02-10T15:24:32.215Z,0.90
2019-02-10T15:26:59.640Z,1.00
2019-02-10T15:29:26.714Z,0.73
2019-02-10T15:31:53.768Z,1.40
2019-02-10T15:34:20.427Z,0.80
2019-02-10T15:36:47.207Z,1.13
2019-02-10T15:39:14.214Z,0.80
2019-02-10T15:41:41.449Z,0.93
2019-02-10T15:44:09.358Z,0.87
2019-02-10T15:46:36.125Z,0.90
2019-02-10T15:49:02.867Z,0.70
2019-02-10T15:51:36.981Z,1.10
2019-02-10T15:53:58.740Z,1.10
2019-02-10T15:56:25.366Z,1.00
2019-02-10T15:58:52.173Z,0.73
2019-02-10T16:01:19.173Z,1.10
2019-02-10T16:03:46.566Z,0.93
2019-02-10T16:06:14.089Z,0.80
2019-02-10T16:08:41.236Z,0.90
2019-02-10T16:11:07.947Z,0.90
2019-02-10T16:13:34.806Z,0.97
2019-02-10T16:16:01.680Z,0.83
2019-02-10T16:18:28.610Z,1.23
2019-02-10T16:20:55.241Z,0.93
2019-02-10T16:23:22.297Z,0.80
2019-02-10T16:25:50.722Z,1.10
2019-02-10T16:28:17.643Z,1.07
2019-02-10T16:30:44.800Z,0.80
2019-02-10T16:33:12.866Z,0.87
2019-02-10T16:35:41.458Z,0.80
2019-02-10T16:38:08.134Z,1.00
2019-02-10T16:40:36.504Z,0.73
2019-02-10T16:43:04.333Z,0.70
2019-02-10T16:45:31.090Z,0.73
2019-02-10T16:47:58.204Z,0.70
2019-02-10T16:50:26.618Z,0.40
2019-02-10T16:52:54.674Z,0.60
2019-02-10T16:55:21.634Z,0.80
2019-02-10T16:57:48.422Z,0.70
2019-02-10T17:00:15.050Z,0.90
2019-02-10T17:02:41.695Z,0.83
2019-02-10T17:05:08.506Z,0.97
2019-02-10T17:07:35.442Z,1.00
2019-02-10T17:10:02.496Z,0.97
2019-02-10T17:12:31.122Z,0.80
2019-02-10T17:14:59.032Z,0.83
2019-02-10T17:17:25.808Z,1.00
2019-02-10T17:19:52.812Z,1.37
2019-02-10T17:22:23.936Z,0.63
2019-02-10T17:24:50.826Z,1.20
2019-02-10T17:27:17.884Z,1.20
2019-02-10T17:29:44.779Z,1.07
2019-02-10T17:32:11.461Z,0.90
2019-02-10T17:34:38.220Z,0.97
2019-02-10T17:37:06.248Z,0.63
2019-02-10T17:39:33.339Z,1.30
2019-02-10T17:42:00.491Z,0.80
2019-02-10T17:44:28.474Z,0.70
2019-02-10T17:46:55.153Z,0.77
2019-02-10T17:49:21.915Z,1.20
2019-02-10T17:51:48.509Z,1.00
2019-02-10T17:54:15.147Z,1.27
2019-02-10T17:56:42.013Z,1.30
2019-02-10T17:59:08.839Z,1.00
2019-02-10T18:01:35.932Z,1.10
2019-02-10T18:04:02.580Z,1.10
2019-02-10T18:06:30.521Z,1.20
2019-02-10T18:08:57.267Z,1.23
2019-02-10T18:11:30.868Z,1.10
2019-02-10T18:13:52.807Z,1.10
2019-02-10T18:16:35.215Z,1.20
2019-02-10T18:19:11.806Z,1.37
2019-02-10T18:22:04.365Z,1.40
2019-02-10T18:24:50.820Z,1.20
2019-02-10T18:27:52.134Z,1.67
2019-02-10T18:30:30.462Z,1.60
2019-02-10T18:33:14.577Z,1.53
2019-02-10T18:35:58.467Z,1.27
2019-02-10T18:38:50.399Z,1.67
2019-02-10T18:41:39.799Z,1.67
2019-02-10T18:44:27.960Z,1.53
2019-02-10T18:47:19.448Z,1.53
2019-02-10T18:50:08.831Z,1.83
2019-02-10T18:53:07.296Z,1.90
2019-02-10T18:55:59.799Z,1.33
2019-02-10T18:59:04.329Z,1.47
2019-02-10T19:01:53.283Z,1.77
2019-02-10T19:07:13.853Z,2.07
2019-02-10T19:09:58.764Z,1.90
2019-02-10T19:12:36.639Z,2.13
2019-02-10T19:15:31.895Z,2.07
2019-02-10T19:18:26.877Z,2.40
2019-02-10T19:21:06.266Z,2.57
2019-02-10T19:23:52.373Z,1.90
2019-02-10T19:26:41.315Z,2.37
2019-02-10T19:29:36.714Z,2.10
2019-02-10T19:32:17.558Z,2.13
2019-02-10T19:35:14.592Z,2.20
2019-02-10T19:37:52.257Z,1.97
2019-02-10T19:40:35.917Z,2.07
2019-02-10T19:43:22.103Z,2.40
2019-02-10T19:46:08.607Z,2.43
2019-02-10T19:48:56.863Z,2.27
2019-02-10T19:51:45.166Z,2.13
2019-02-10T19:54:34.422Z,2.40
2019-02-10T19:57:17.419Z,1.90
2019-02-10T20:00:06.393Z,2.10
2019-02-10T20:02:51.394Z,2.27
2019-02-10T20:05:54.763Z,2.00
2019-02-10T20:08:34.749Z,2.50
2019-02-10T20:11:30.068Z,1.87
2019-02-10T20:14:22.687Z,2.50
2019-02-10T20:17:23.568Z,2.50
2019-02-10T20:20:23.870Z,1.83
2019-02-10T20:23:15.847Z,2.33
2019-02-10T20:26:11.687Z,2.43
2019-02-10T20:29:10.125Z,1.97
2019-02-10T20:31:54.987Z,1.90
2019-02-10T20:34:39.905Z,1.83
2019-02-10T20:37:46.336Z,2.20
2019-02-10T20:40:44.580Z,1.80
2019-02-10T20:43:30.765Z,1.90
2019-02-10T20:46:29.049Z,1.60
2019-02-10T20:49:15.165Z,1.87
2019-02-10T20:52:01.528Z,1.90
2019-02-10T20:54:52.561Z,1.73
2019-02-10T20:57:37.958Z,1.97
2019-02-10T21:00:22.740Z,2.37
2019-02-10T21:03:02.221Z,1.50
2019-02-10T21:05:45.990Z,1.87
2019-02-10T21:08:30.542Z,1.80
2019-02-10T21:11:13.753Z,1.60
2019-02-10T21:14:02.990Z,1.90
2019-02-10T21:16:57.776Z,1.90
2019-02-10T21:19:43.954Z,2.17
2019-02-10T21:22:24.813Z,1.57
2019-02-10T21:25:13.082Z,1.70
2019-02-10T21:27:55.516Z,1.40
2019-02-10T21:30:59.783Z,2.20
2019-02-10T21:33:51.806Z,1.90
2019-02-10T21:36:37.926Z,1.87
2019-02-10T21:39:39.254Z,1.60
2019-02-10T21:42:14.558Z,1.30
2019-02-10T21:45:03.695Z,1.40
2019-02-10T21:47:48.500Z,1.60
2019-02-10T21:50:15.643Z,1.73
2019-02-10T21:52:42.330Z,1.30
2019-02-10T21:55:09.185Z,1.50
2019-02-10T21:57:36.350Z,1.37
2019-02-10T22:00:03.356Z,1.90
2019-02-10T22:02:30.544Z,1.50
2019-02-10T22:04:57.477Z,1.53
2019-02-10T22:07:24.092Z,1.97
2019-02-10T22:09:52.609Z,1.63
2019-02-10T22:12:22.234Z,1.50
2019-02-10T22:14:50.419Z,2.40
2019-02-10T22:17:19.169Z,1.40
2019-02-10T22:19:47.646Z,1.57
2019-02-10T22:22:16.517Z,1.53
2019-02-10T22:24:45.254Z,1.67
2019-02-10T22:27:14.225Z,1.67
2019-02-10T22:29:42.782Z,1.50
2019-02-10T22:32:12.511Z,1.27
2019-02-10T22:34:39.933Z,0.87
2019-02-10T22:37:06.835Z,1.50
2019-02-10T22:39:33.596Z,1.23
2019-02-10T22:42:00.423Z,1.63
2019-02-10T22:44:27.371Z,1.03
2019-02-10T22:46:54.580Z,1.27
2019-02-10T22:49:21.414Z,1.60
2019-02-10T22:51:49.915Z,1.10
2019-02-10T22:54:20.009Z,1.40
2019-02-10T22:56:47.122Z,1.30
2019-02-10T22:59:13.842Z,1.23
2019-02-10T23:01:40.718Z,1.50
2019-02-10T23:04:07.439Z,1.10
2019-02-10T23:06:34.395Z,1.10
2019-02-10T23:09:01.325Z,1.03
2019-02-10T23:11:28.293Z,1.20
2019-02-10T23:13:55.212Z,1.17
2019-02-10T23:16:21.800Z,1.40
2019-02-10T23:18:48.566Z,0.93
2019-02-10T23:21:15.592Z,1.00
2019-02-10T23:23:42.599Z,1.00
2019-02-10T23:26:09.328Z,1.20
2019-02-10T23:28:36.284Z,1.10
2019-02-10T23:31:03.002Z,1.63
2019-02-10T23:33:29.728Z,1.27
2019-02-10T23:35:56.445Z,1.40
2019-02-10T23:38:23.248Z,1.20
2019-02-10T23:40:50.318Z,1.10
2019-02-10T23:43:17.230Z,1.07
2019-02-10T23:45:44.180Z,1.00
2019-02-10T23:48:10.746Z,1.20
2019-02-10T23:50:37.582Z,1.10
2019-02-10T23:53:04.358Z,1.43
2019-02-10T23:55:31.104Z,1.33
2019-02-10T23:57:57.818Z,1.13
